aviador You're here:

CYXR Decoded Metar

EARLTON in ON, CANADA
Report Time2017-10-20 17:00:00
UTC Time2017-10-20 18:07:24
Flight Rules Old
Wind120° at 08 kt
W.Decomp.*RWY 16: 7.1 kt HW 3.8 kt LCW
RWY 08: 4.9 kt HW 6.3 kt RCW
W.Rank120° ranks 17
Current wind is above 120° avg. (6.7)
Visibility9999 m
Phenomena:N/A
Clouds:N/A
Expected CloudBase > 4,000 ft AGL from Temp-Dew spread
CeilingNone
Temp14°C (ISA +1)
Dew Point04°C (51% RH)
AAT9.8°C
QNH1017 hPa
Density Alt846 ft
Elevation797 ft
Report Wrong Elevation
Raw Report
CYXR 201700Z AUTO 12008KT 9SM CLR 14/04 A3004 RMK SLP182=

Extra information for CYXR:More info

Metar Taf Metar & Taf Last 4 Metars F.Rules Stats Wind Profile Meteogram Temp Stats Airport Information Weather charts Add Link Nearby VenuesMetar ALERT Operation Metar Decoded Social comments